sensor_id;sensor_type;location;lat;lon;timestamp;pressure;altitude;pressure_sealevel;temperature;humidity
58947;BME280;44724;52.332;4.978;2022-07-21T00:01:00;101720.94;;;20.39;100.00
58947;BME280;44724;52.332;4.978;2022-07-21T00:03:26;101720.13;;;20.39;100.00
58947;BME280;44724;52.332;4.978;2022-07-21T00:05:51;101714.03;;;20.37;100.00
58947;BME280;44724;52.332;4.978;2022-07-21T00:08:17;101720.47;;;20.37;100.00
58947;BME280;44724;52.332;4.978;2022-07-21T00:10:42;101712.38;;;20.27;100.00
58947;BME280;44724;52.332;4.978;2022-07-21T00:13:08;101713.06;;;20.32;100.00
58947;BME280;44724;52.332;4.978;2022-07-21T00:15:33;101718.00;;;20.27;100.00
58947;BME280;44724;52.332;4.978;2022-07-21T00:17:59;101719.34;;;20.29;100.00
58947;BME280;44724;52.332;4.978;2022-07-21T00:20:25;101728.75;;;20.33;100.00
58947;BME280;44724;52.332;4.978;2022-07-21T00:22:53;101726.09;;;20.28;100.00
58947;BME280;44724;52.332;4.978;2022-07-21T00:25:19;101715.56;;;20.25;100.00
58947;BME280;44724;52.332;4.978;2022-07-21T00:27:44;101719.50;;;20.24;100.00
58947;BME280;44724;52.332;4.978;2022-07-21T00:30:10;101720.31;;;20.25;100.00
58947;BME280;44724;52.332;4.978;2022-07-21T00:32:36;101715.75;;;20.11;100.00
58947;BME280;44724;52.332;4.978;2022-07-21T00:35:04;101714.41;;;20.09;100.00
58947;BME280;44724;52.332;4.978;2022-07-21T00:37:30;101724.34;;;19.98;100.00
58947;BME280;44724;52.332;4.978;2022-07-21T00:39:56;101721.69;;;20.01;100.00
58947;BME280;44724;52.332;4.978;2022-07-21T00:42:23;101725.00;;;20.03;100.00
58947;BME280;44724;52.332;4.978;2022-07-21T00:44:49;101732.13;;;20.01;100.00
58947;BME280;44724;52.332;4.978;2022-07-21T00:47:15;101735.25;;;19.99;100.00
58947;BME280;44724;52.332;4.978;2022-07-21T00:49:43;101731.97;;;19.97;100.00
58947;BME280;44724;52.332;4.978;2022-07-21T00:52:10;101735.91;;;19.96;100.00
58947;BME280;44724;52.332;4.978;2022-07-21T00:54:35;101735.75;;;19.92;100.00
58947;BME280;44724;52.332;4.978;2022-07-21T00:57:01;101735.59;;;19.89;100.00
58947;BME280;44724;52.332;4.978;2022-07-21T00:59:29;101740.22;;;19.93;100.00
58947;BME280;44724;52.332;4.978;2022-07-21T01:01:54;101729.31;;;19.92;100.00
58947;BME280;44724;52.332;4.978;2022-07-21T01:04:19;101729.47;;;19.96;100.00
58947;BME280;44724;52.332;4.978;2022-07-21T01:06:45;101733.91;;;19.97;100.00
58947;BME280;44724;52.332;4.978;2022-07-21T01:09:10;101722.84;;;19.91;100.00
58947;BME280;44724;52.332;4.978;2022-07-21T01:11:36;101725.88;;;19.86;100.00
58947;BME280;44724;52.332;4.978;2022-07-21T01:14:02;101723.38;;;19.93;100.00
58947;BME280;44724;52.332;4.978;2022-07-21T01:16:27;101726.34;;;19.97;100.00
58947;BME280;44724;52.332;4.978;2022-07-21T01:18:53;101723.38;;;19.93;100.00
58947;BME280;44724;52.332;4.978;2022-07-21T01:21:32;101720.91;;;19.92;100.00
58947;BME280;44724;52.332;4.978;2022-07-21T01:23:58;101716.25;;;19.87;100.00
58947;BME280;44724;52.332;4.978;2022-07-21T01:26:24;101719.38;;;19.94;100.00
58947;BME280;44724;52.332;4.978;2022-07-21T01:28:50;101714.44;;;19.91;100.00
58947;BME280;44724;52.332;4.978;2022-07-21T01:31:15;101705.03;;;19.87;100.00
58947;BME280;44724;52.332;4.978;2022-07-21T01:33:41;101706.69;;;19.88;100.00
58947;BME280;44724;52.332;4.978;2022-07-21T01:36:07;101710.16;;;19.85;100.00
58947;BME280;44724;52.332;4.978;2022-07-21T01:38:33;101705.69;;;19.84;100.00
58947;BME280;44724;52.332;4.978;2022-07-21T01:41:17;101707.19;;;19.82;100.00
58947;BME280;44724;52.332;4.978;2022-07-21T01:43:58;101699.56;;;19.82;100.00
58947;BME280;44724;52.332;4.978;2022-07-21T01:46:24;101704.06;;;19.83;100.00
58947;BME280;44724;52.332;4.978;2022-07-21T01:48:50;101699.09;;;19.80;100.00
58947;BME280;44724;52.332;4.978;2022-07-21T01:51:15;101688.50;;;19.77;100.00
58947;BME280;44724;52.332;4.978;2022-07-21T01:53:40;101698.59;;;19.78;100.00
58947;BME280;44724;52.332;4.978;2022-07-21T01:56:06;101691.16;;;19.82;100.00
58947;BME280;44724;52.332;4.978;2022-07-21T01:58:32;101687.19;;;19.83;100.00
58947;BME280;44724;52.332;4.978;2022-07-21T02:00:58;101686.88;;;19.76;100.00
58947;BME280;44724;52.332;4.978;2022-07-21T02:03:24;101686.38;;;19.74;100.00
58947;BME280;44724;52.332;4.978;2022-07-21T02:05:49;101693.81;;;19.79;100.00
58947;BME280;44724;52.332;4.978;2022-07-21T02:08:15;101701.72;;;19.77;100.00
58947;BME280;44724;52.332;4.978;2022-07-21T02:10:40;101705.19;;;19.73;100.00
58947;BME280;44724;52.332;4.978;2022-07-21T02:13:06;101697.09;;;19.72;100.00
58947;BME280;44724;52.332;4.978;2022-07-21T02:15:31;101690.47;;;19.68;100.00
58947;BME280;44724;52.332;4.978;2022-07-21T02:17:57;101687.34;;;19.69;100.00
58947;BME280;44724;52.332;4.978;2022-07-21T02:20:23;101682.38;;;19.66;100.00
58947;BME280;44724;52.332;4.978;2022-07-21T02:22:49;101684.84;;;19.68;100.00
58947;BME280;44724;52.332;4.978;2022-07-21T02:25:15;101687.84;;;19.71;100.00
58947;BME280;44724;52.332;4.978;2022-07-21T02:27:42;101688.16;;;19.70;100.00
58947;BME280;44724;52.332;4.978;2022-07-21T02:30:09;101675.44;;;19.72;100.00
58947;BME280;44724;52.332;4.978;2022-07-21T02:32:34;101683.22;;;19.67;100.00
58947;BME280;44724;52.332;4.978;2022-07-21T02:35:00;101685.34;;;19.70;100.00
58947;BME280;44724;52.332;4.978;2022-07-21T02:37:27;101688.16;;;19.70;100.00
58947;BME280;44724;52.332;4.978;2022-07-21T02:39:53;101690.47;;;19.68;100.00
58947;BME280;44724;52.332;4.978;2022-07-21T02:42:18;101689.00;;;19.70;100.00
58947;BME280;44724;52.332;4.978;2022-07-21T02:44:43;101686.03;;;19.67;100.00
58947;BME280;44724;52.332;4.978;2022-07-21T02:47:09;101674.63;;;19.72;100.00
58947;BME280;44724;52.332;4.978;2022-07-21T02:49:34;101678.09;;;19.69;100.00
58947;BME280;44724;52.332;4.978;2022-07-21T02:51:59;101681.56;;;19.66;100.00
58947;BME280;44724;52.332;4.978;2022-07-21T02:54:25;101678.75;;;19.66;100.00
58947;BME280;44724;52.332;4.978;2022-07-21T02:56:51;101670.34;;;19.66;100.00
58947;BME280;44724;52.332;4.978;2022-07-21T02:59:16;101673.78;;;19.63;100.00
58947;BME280;44724;52.332;4.978;2022-07-21T03:01:42;101671.47;;;19.65;100.00
58947;BME280;44724;52.332;4.978;2022-07-21T03:04:07;101668.00;;;19.59;100.00
58947;BME280;44724;52.332;4.978;2022-07-21T03:06:33;101675.47;;;19.64;100.00
58947;BME280;44724;52.332;4.978;2022-07-21T03:08:58;101678.25;;;19.64;100.00
58947;BME280;44724;52.332;4.978;2022-07-21T03:11:24;101685.88;;;19.63;100.00
58947;BME280;44724;52.332;4.978;2022-07-21T03:13:49;101683.06;;;19.63;100.00
58947;BME280;44724;52.332;4.978;2022-07-21T03:16:15;101679.56;;;19.57;100.00
58947;BME280;44724;52.332;4.978;2022-07-21T03:18:40;101672.81;;;19.50;100.00
58947;BME280;44724;52.332;4.978;2022-07-21T03:21:06;101687.00;;;19.53;100.00
58947;BME280;44724;52.332;4.978;2022-07-21T03:23:32;101683.22;;;19.49;100.00
58947;BME280;44724;52.332;4.978;2022-07-21T03:25:57;101683.38;;;19.53;100.00
58947;BME280;44724;52.332;4.978;2022-07-21T03:28:23;101672.00;;;19.49;100.00
58947;BME280;44724;52.332;4.978;2022-07-21T03:30:48;101683.72;;;19.51;100.00
58947;BME280;44724;52.332;4.978;2022-07-21T03:33:13;101688.19;;;19.52;100.00
58947;BME280;44724;52.332;4.978;2022-07-21T03:35:39;101675.28;;;19.51;100.00
58947;BME280;44724;52.332;4.978;2022-07-21T03:38:05;101674.66;;;19.54;100.00
58947;BME280;44724;52.332;4.978;2022-07-21T03:40:33;101671.66;;;19.51;100.00
58947;BME280;44724;52.332;4.978;2022-07-21T03:43:01;101670.81;;;19.50;100.00
58947;BME280;44724;52.332;4.978;2022-07-21T03:45:27;101678.25;;;19.55;100.00
58947;BME280;44724;52.332;4.978;2022-07-21T03:47:56;101686.03;;;19.49;100.00
58947;BME280;44724;52.332;4.978;2022-07-21T03:50:23;101683.72;;;19.51;100.00
58947;BME280;44724;52.332;4.978;2022-07-21T03:52:48;101677.78;;;19.53;100.00
58947;BME280;44724;52.332;4.978;2022-07-21T03:55:14;101671.84;;;19.54;100.00
58947;BME280;44724;52.332;4.978;2022-07-21T03:57:45;101668.19;;;19.54;100.00
58947;BME280;44724;52.332;4.978;2022-07-21T04:00:20;101674.66;;;19.54;100.00
58947;BME280;44724;52.332;4.978;2022-07-21T04:02:46;101676.28;;;19.55;100.00
58947;BME280;44724;52.332;4.978;2022-07-21T04:05:13;101673.63;;;19.50;100.00
58947;BME280;44724;52.332;4.978;2022-07-21T04:07:43;101671.50;;;19.56;100.00
58947;BME280;44724;52.332;4.978;2022-07-21T04:10:11;101670.00;;;19.59;100.00
58947;BME280;44724;52.332;4.978;2022-07-21T04:12:37;101680.25;;;19.54;100.00
58947;BME280;44724;52.332;4.978;2022-07-21T04:15:04;101678.59;;;19.53;100.00
58947;BME280;44724;52.332;4.978;2022-07-21T04:17:30;101683.56;;;19.56;100.00
58947;BME280;44724;52.332;4.978;2022-07-21T04:19:55;101689.81;;;19.53;100.00
58947;BME280;44724;52.332;4.978;2022-07-21T04:22:20;101695.59;;;19.57;100.00
58947;BME280;44724;52.332;4.978;2022-07-21T04:24:46;101695.94;;;19.55;100.00
58947;BME280;44724;52.332;4.978;2022-07-21T04:27:11;101703.22;;;19.56;100.00
58947;BME280;44724;52.332;4.978;2022-07-21T04:29:37;101705.84;;;19.62;100.00
58947;BME280;44724;52.332;4.978;2022-07-21T04:32:03;101702.88;;;19.67;100.00
58947;BME280;44724;52.332;4.978;2022-07-21T04:34:28;101700.56;;;19.69;100.00
58947;BME280;44724;52.332;4.978;2022-07-21T04:36:54;101703.38;;;19.69;100.00
58947;BME280;44724;52.332;4.978;2022-07-21T04:39:19;101702.03;;;19.66;100.00
58947;BME280;44724;52.332;4.978;2022-07-21T04:41:45;101706.34;;;19.64;100.00
58947;BME280;44724;52.332;4.978;2022-07-21T04:44:10;101701.22;;;19.57;100.00
58947;BME280;44724;52.332;4.978;2022-07-21T04:46:36;101708.81;;;19.65;100.00
58947;BME280;44724;52.332;4.978;2022-07-21T04:49:01;101698.41;;;19.66;100.00
58947;BME280;44724;52.332;4.978;2022-07-21T04:51:27;101710.78;;;19.65;100.00
58947;BME280;44724;52.332;4.978;2022-07-21T04:53:52;101698.56;;;19.69;100.00
58947;BME280;44724;52.332;4.978;2022-07-21T04:56:17;101696.41;;;19.66;100.00
58947;BME280;44724;52.332;4.978;2022-07-21T04:58:43;101698.41;;;19.66;100.00
58947;BME280;44724;52.332;4.978;2022-07-21T05:01:08;101688.84;;;19.67;100.00
58947;BME280;44724;52.332;4.978;2022-07-21T05:03:33;101682.06;;;19.68;100.00
58947;BME280;44724;52.332;4.978;2022-07-21T05:05:59;101689.81;;;19.71;100.00
58947;BME280;44724;52.332;4.978;2022-07-21T05:08:24;101685.03;;;19.71;100.00
58947;BME280;44724;52.332;4.978;2022-07-21T05:10:52;101690.47;;;19.68;100.00
58947;BME280;44724;52.332;4.978;2022-07-21T05:13:17;101681.88;;;19.73;100.00
58947;BME280;44724;52.332;4.978;2022-07-21T05:15:42;101681.72;;;19.69;100.00
58947;BME280;44724;52.332;4.978;2022-07-21T05:18:08;101685.88;;;19.72;100.00
58947;BME280;44724;52.332;4.978;2022-07-21T05:20:33;101680.94;;;19.78;100.00
58947;BME280;44724;52.332;4.978;2022-07-21T05:23:00;101692.81;;;19.83;100.00
58947;BME280;44724;52.332;4.978;2022-07-21T05:25:27;101684.22;;;19.88;100.00
58947;BME280;44724;52.332;4.978;2022-07-21T05:27:54;101672.13;;;19.88;100.00
58947;BME280;44724;52.332;4.978;2022-07-21T05:30:19;101673.00;;;19.80;100.00
58947;BME280;44724;52.332;4.978;2022-07-21T05:32:45;101667.38;;;19.88;100.00
58947;BME280;44724;52.332;4.978;2022-07-21T05:35:10;101662.22;;;19.99;100.00
58947;BME280;44724;52.332;4.978;2022-07-21T05:37:40;101665.38;;;19.98;100.00
58947;BME280;44724;52.332;4.978;2022-07-21T05:40:08;101672.13;;;19.88;100.00
58947;BME280;44724;52.332;4.978;2022-07-21T05:42:33;101665.38;;;19.98;100.00
58947;BME280;44724;52.332;4.978;2022-07-21T05:44:59;101666.03;;;19.94;100.00
58947;BME280;44724;52.332;4.978;2022-07-21T05:47:25;101667.69;;;19.96;100.00
58947;BME280;44724;52.332;4.978;2022-07-21T05:49:50;101657.56;;;20.03;100.00
58947;BME280;44724;52.332;4.978;2022-07-21T05:52:16;101658.56;;;20.07;100.00
58947;BME280;44724;52.332;4.978;2022-07-21T05:54:41;101662.84;;;20.13;100.00
58947;BME280;44724;52.332;4.978;2022-07-21T05:57:06;101652.06;;;20.24;100.00
58947;BME280;44724;52.332;4.978;2022-07-21T05:59:32;101660.16;;;20.26;100.00
58947;BME280;44724;52.332;4.978;2022-07-21T06:01:58;101654.84;;;20.33;100.00
58947;BME280;44724;52.332;4.978;2022-07-21T06:04:24;101653.84;;;20.38;100.00
58947;BME280;44724;52.332;4.978;2022-07-21T06:06:49;101654.50;;;20.35;100.00
58947;BME280;44724;52.332;4.978;2022-07-21T06:09:15;101654.03;;;20.32;100.00
58947;BME280;44724;52.332;4.978;2022-07-21T06:11:43;101653.19;;;20.32;100.00
58947;BME280;44724;52.332;4.978;2022-07-21T06:14:09;101656.31;;;20.30;100.00
58947;BME280;44724;52.332;4.978;2022-07-21T06:16:34;101657.03;;;20.27;100.00
58947;BME280;44724;52.332;4.978;2022-07-21T06:19:00;101652.84;;;20.33;100.00
58947;BME280;44724;52.332;4.978;2022-07-21T06:21:27;101646.22;;;20.38;100.00
58947;BME280;44724;52.332;4.978;2022-07-21T06:23:52;101643.88;;;20.49;100.00
58947;BME280;44724;52.332;4.978;2022-07-21T06:26:18;101646.50;;;20.54;100.00
58947;BME280;44724;52.332;4.978;2022-07-21T06:28:43;101653.63;;;20.43;100.00
58947;BME280;44724;52.332;4.978;2022-07-21T06:31:09;101661.88;;;20.48;100.00
58947;BME280;44724;52.332;4.978;2022-07-21T06:33:34;101667.38;;;20.36;100.00
58947;BME280;44724;52.332;4.978;2022-07-21T06:36:00;101662.56;;;20.45;100.00
58947;BME280;44724;52.332;4.978;2022-07-21T06:38:25;101651.94;;;20.59;100.00
58947;BME280;44724;52.332;4.978;2022-07-21T06:40:50;101652.00;;;20.42;100.00
58947;BME280;44724;52.332;4.978;2022-07-21T06:43:16;101654.16;;;20.45;100.00
58947;BME280;44724;52.332;4.978;2022-07-21T06:45:41;101652.59;;;20.56;100.00
58947;BME280;44724;52.332;4.978;2022-07-21T06:48:09;101649.44;;;20.66;100.00
58947;BME280;44724;52.332;4.978;2022-07-21T06:50:35;101649.78;;;20.65;100.00
58947;BME280;44724;52.332;4.978;2022-07-21T06:53:05;101646.88;;;20.44;100.00
58947;BME280;44724;52.332;4.978;2022-07-21T06:55:31;101652.44;;;20.61;100.00
58947;BME280;44724;52.332;4.978;2022-07-21T06:57:56;101656.56;;;20.55;100.00
58947;BME280;44724;52.332;4.978;2022-07-21T07:00:22;101663.03;;;20.56;100.00
58947;BME280;44724;52.332;4.978;2022-07-21T07:02:48;101665.13;;;20.67;100.00
58947;BME280;44724;52.332;4.978;2022-07-21T07:05:13;101660.19;;;20.64;100.00
58947;BME280;44724;52.332;4.978;2022-07-21T07:07:39;101660.25;;;20.47;100.00
58947;BME280;44724;52.332;4.978;2022-07-21T07:10:05;101660.16;;;20.26;100.00
58947;BME280;44724;52.332;4.978;2022-07-21T07:12:31;101671.03;;;20.36;100.00
58947;BME280;44724;52.332;4.978;2022-07-21T07:14:56;101668.41;;;20.31;100.00
58947;BME280;44724;52.332;4.978;2022-07-21T07:17:24;101673.56;;;20.20;100.00
58947;BME280;44724;52.332;4.978;2022-07-21T07:19:50;101674.22;;;20.17;100.00
58947;BME280;44724;52.332;4.978;2022-07-21T07:22:15;101669.75;;;20.16;100.00
58947;BME280;44724;52.332;4.978;2022-07-21T07:24:41;101672.09;;;20.14;100.00
58947;BME280;44724;52.332;4.978;2022-07-21T07:27:07;101673.28;;;20.13;100.00
58947;BME280;44724;52.332;4.978;2022-07-21T07:29:32;101679.91;;;20.00;100.00
58947;BME280;44724;52.332;4.978;2022-07-21T07:31:58;101685.34;;;20.05;100.00
58947;BME280;44724;52.332;4.978;2022-07-21T07:34:24;101679.91;;;20.00;100.00
58947;BME280;44724;52.332;4.978;2022-07-21T07:36:49;101679.41;;;19.98;100.00
58947;BME280;44724;52.332;4.978;2022-07-21T07:39:15;101685.38;;;19.87;100.00
58947;BME280;44724;52.332;4.978;2022-07-21T07:41:41;101694.66;;;19.79;100.00
58947;BME280;44724;52.332;4.978;2022-07-21T07:44:07;101706.19;;;19.69;100.00
58947;BME280;44724;52.332;4.978;2022-07-21T07:46:33;101711.31;;;19.67;100.00
58947;BME280;44724;52.332;4.978;2022-07-21T07:48:59;101713.59;;;19.65;100.00
58947;BME280;44724;52.332;4.978;2022-07-21T07:51:24;101717.56;;;19.72;100.00
58947;BME280;44724;52.332;4.978;2022-07-21T07:53:50;101724.16;;;19.68;100.00
58947;BME280;44724;52.332;4.978;2022-07-21T07:56:15;101726.00;;;19.64;100.00
58947;BME280;44724;52.332;4.978;2022-07-21T07:58:40;101733.41;;;19.68;100.00
58947;BME280;44724;52.332;4.978;2022-07-21T08:01:06;101737.38;;;19.67;100.00
58947;BME280;44724;52.332;4.978;2022-07-21T08:03:31;101737.72;;;19.66;100.00
58947;BME280;44724;52.332;4.978;2022-07-21T08:05:57;101736.25;;;19.60;100.00
58947;BME280;44724;52.332;4.978;2022-07-21T08:08:29;101742.19;;;19.58;100.00
58947;BME280;44724;52.332;4.978;2022-07-21T08:10:55;101749.09;;;19.52;100.00
58947;BME280;44724;52.332;4.978;2022-07-21T08:13:21;101755.19;;;19.45;100.00
58947;BME280;44724;52.332;4.978;2022-07-21T08:15:47;101756.19;;;19.41;100.00
58947;BME280;44724;52.332;4.978;2022-07-21T08:18:13;101751.53;;;19.36;100.00
58947;BME280;44724;52.332;4.978;2022-07-21T08:20:39;101759.81;;;19.41;100.00
58947;BME280;44724;52.332;4.978;2022-07-21T08:23:06;101760.47;;;19.38;100.00
58947;BME280;44724;52.332;4.978;2022-07-21T08:25:32;101760.97;;;19.31;100.00
58947;BME280;44724;52.332;4.978;2022-07-21T08:27:57;101764.75;;;19.27;100.00
58947;BME280;44724;52.332;4.978;2022-07-21T08:30:23;101769.84;;;19.16;100.00
58947;BME280;44724;52.332;4.978;2022-07-21T08:32:48;101768.63;;;18.99;100.00
58947;BME280;44724;52.332;4.978;2022-07-21T08:35:13;101774.56;;;18.98;100.00
58947;BME280;44724;52.332;4.978;2022-07-21T08:37:39;101765.16;;;19.03;100.00
58947;BME280;44724;52.332;4.978;2022-07-21T08:40:07;101767.44;;;18.92;100.00
58947;BME280;44724;52.332;4.978;2022-07-21T08:42:33;101767.09;;;18.93;100.00
58947;BME280;44724;52.332;4.978;2022-07-21T08:44:58;101768.94;;;18.98;100.00
58947;BME280;44724;52.332;4.978;2022-07-21T08:47:27;101772.75;;;19.02;100.00
58947;BME280;44724;52.332;4.978;2022-07-21T08:49:53;101774.88;;;18.96;100.00
58947;BME280;44724;52.332;4.978;2022-07-21T08:52:20;101779.81;;;18.91;100.00
58947;BME280;44724;52.332;4.978;2022-07-21T08:54:45;101777.16;;;18.86;100.00
58947;BME280;44724;52.332;4.978;2022-07-21T08:57:11;101781.41;;;18.83;100.00
58947;BME280;44724;52.332;4.978;2022-07-21T08:59:36;101779.44;;;18.84;100.00
58947;BME280;44724;52.332;4.978;2022-07-21T09:02:02;101769.38;;;18.83;100.00
58947;BME280;44724;52.332;4.978;2022-07-21T09:04:31;101781.44;;;18.92;100.00
58947;BME280;44724;52.332;4.978;2022-07-21T09:06:59;101777.16;;;18.86;100.00
58947;BME280;44724;52.332;4.978;2022-07-21T09:09:27;101780.78;;;18.86;100.00
58947;BME280;44724;52.332;4.978;2022-07-21T09:11:54;101783.91;;;18.85;100.00
58947;BME280;44724;52.332;4.978;2022-07-21T09:14:22;101787.22;;;18.87;100.00
58947;BME280;44724;52.332;4.978;2022-07-21T09:16:58;101789.38;;;18.90;100.00
58947;BME280;44724;52.332;4.978;2022-07-21T09:19:27;101789.97;;;18.78;100.00
58947;BME280;44724;52.332;4.978;2022-07-21T09:21:57;101788.25;;;18.68;100.00
58947;BME280;44724;52.332;4.978;2022-07-21T09:24:31;101789.91;;;18.69;100.00
58947;BME280;44724;52.332;4.978;2022-07-21T09:27:12;101796.03;;;18.71;100.00
58947;BME280;44724;52.332;4.978;2022-07-21T09:29:45;101798.19;;;18.74;100.00
58947;BME280;44724;52.332;4.978;2022-07-21T09:34:37;101790.72;;;18.70;100.00
58947;BME280;44724;52.332;4.978;2022-07-21T09:37:05;101787.25;;;18.64;100.00
58947;BME280;44724;52.332;4.978;2022-07-21T09:39:51;101806.00;;;18.55;100.00
58947;BME280;44724;52.332;4.978;2022-07-21T09:42:25;101800.91;;;18.57;100.00
58947;BME280;44724;52.332;4.978;2022-07-21T09:44:54;101805.63;;;18.48;100.00
58947;BME280;44724;52.332;4.978;2022-07-21T09:47:22;101808.06;;;18.49;100.00
58947;BME280;44724;52.332;4.978;2022-07-21T09:49:49;101819.47;;;18.53;100.00
58947;BME280;44724;52.332;4.978;2022-07-21T09:52:32;101811.66;;;18.41;100.00
58947;BME280;44724;52.332;4.978;2022-07-21T09:54:58;101816.25;;;18.37;100.00
58947;BME280;44724;52.332;4.978;2022-07-21T09:57:25;101824.00;;;18.40;100.00
58947;BME280;44724;52.332;4.978;2022-07-21T09:59:51;101809.06;;;18.45;100.00
58947;BME280;44724;52.332;4.978;2022-07-21T10:02:23;101821.91;;;18.46;100.00
58947;BME280;44724;52.332;4.978;2022-07-21T10:04:55;101820.28;;;18.45;100.00
58947;BME280;44724;52.332;4.978;2022-07-21T10:07:21;101818.47;;;18.49;100.00
58947;BME280;44724;52.332;4.978;2022-07-21T10:09:47;101822.09;;;18.49;100.00
58947;BME280;44724;52.332;4.978;2022-07-21T10:12:15;101823.56;;;18.47;100.00
58947;BME280;44724;52.332;4.978;2022-07-21T10:14:41;101824.72;;;18.46;100.00
58947;BME280;44724;52.332;4.978;2022-07-21T10:17:07;101834.28;;;18.45;100.00
58947;BME280;44724;52.332;4.978;2022-07-21T10:19:39;101833.13;;;18.46;100.00
58947;BME280;44724;52.332;4.978;2022-07-21T10:22:29;101829.31;;;18.41;100.00
58947;BME280;44724;52.332;4.978;2022-07-21T10:24:56;101836.25;;;18.44;100.00
58947;BME280;44724;52.332;4.978;2022-07-21T10:27:22;101840.50;;;18.41;100.00
58947;BME280;44724;52.332;4.978;2022-07-21T10:29:48;101848.72;;;18.38;100.00
58947;BME280;44724;52.332;4.978;2022-07-21T10:32:48;101845.94;;;18.38;100.00
58947;BME280;44724;52.332;4.978;2022-07-21T10:35:41;101849.66;;;18.33;100.00
58947;BME280;44724;52.332;4.978;2022-07-21T10:38:25;101850.09;;;18.40;100.00
58947;BME280;44724;52.332;4.978;2022-07-21T10:40:51;101852.53;;;18.42;100.00
58947;BME280;44724;52.332;4.978;2022-07-21T10:45:52;101849.94;;;18.46;100.00
58947;BME280;44724;52.332;4.978;2022-07-21T10:51:13;101855.03;;;18.43;100.00
58947;BME280;44724;52.332;4.978;2022-07-21T10:53:39;101855.88;;;18.44;100.00
58947;BME280;44724;52.332;4.978;2022-07-21T10:56:05;101858.41;;;18.54;100.00
58947;BME280;44724;52.332;4.978;2022-07-21T10:58:38;101858.66;;;18.67;100.00
58947;BME280;44724;52.332;4.978;2022-07-21T11:03:45;101855.72;;;18.72;100.00
58947;BME280;44724;52.332;4.978;2022-07-21T11:06:26;101858.66;;;18.67;100.00
58947;BME280;44724;52.332;4.978;2022-07-21T11:08:52;101862.81;;;18.69;100.00
58947;BME280;44724;52.332;4.978;2022-07-21T11:11:26;101862.31;;;18.76;100.00
58947;BME280;44724;52.332;4.978;2022-07-21T11:22:00;101865.91;;;19.22;100.00
58947;BME280;44724;52.332;4.978;2022-07-21T11:24:26;101863.78;;;19.27;100.00
58947;BME280;44724;52.332;4.978;2022-07-21T11:27:05;101860.81;;;19.32;100.00
58947;BME280;44724;52.332;4.978;2022-07-21T11:29:33;101866.47;;;19.41;100.00
58947;BME280;44724;52.332;4.978;2022-07-21T11:31:59;101859.38;;;19.44;100.00
58947;BME280;44724;52.332;4.978;2022-07-21T11:34:43;101850.63;;;19.45;100.00
58947;BME280;44724;52.332;4.978;2022-07-21T11:37:10;101863.72;;;19.59;100.00
58947;BME280;44724;52.332;4.978;2022-07-21T11:39:36;101859.22;;;19.49;100.00
58947;BME280;44724;52.332;4.978;2022-07-21T11:42:21;101855.09;;;19.46;100.00
58947;BME280;44724;52.332;4.978;2022-07-21T11:44:47;101861.34;;;19.43;100.00
58947;BME280;44724;52.332;4.978;2022-07-21T11:47:14;101849.97;;;19.48;100.00
58947;BME280;44724;52.332;4.978;2022-07-21T11:49:41;101863.22;;;19.56;100.00
58947;BME280;44724;52.332;4.978;2022-07-21T11:52:09;101872.13;;;19.59;100.00
58947;BME280;44724;52.332;4.978;2022-07-21T11:57:13;101862.56;;;19.60;100.00
58947;BME280;44724;52.332;4.978;2022-07-21T11:59:40;101869.19;;;19.64;100.00
58947;BME280;44724;52.332;4.978;2022-07-21T12:02:13;101865.69;;;19.58;100.00
58947;BME280;44724;52.332;4.978;2022-07-21T12:04:54;101863.88;;;19.53;100.00
58947;BME280;44724;52.332;4.978;2022-07-21T12:07:29;101861.06;;;19.53;100.00
58947;BME280;44724;52.332;4.978;2022-07-21T12:09:57;101864.03;;;19.57;100.00
58947;BME280;44724;52.332;4.978;2022-07-21T12:12:31;101864.19;;;19.52;100.00
58947;BME280;44724;52.332;4.978;2022-07-21T12:18:20;101866.47;;;19.41;100.00
58947;BME280;44724;52.332;4.978;2022-07-21T12:20:47;101863.81;;;19.36;100.00
58947;BME280;44724;52.332;4.978;2022-07-21T12:23:25;101853.06;;;19.29;100.00
58947;BME280;44724;52.332;4.978;2022-07-21T12:25:53;101869.63;;;19.48;100.00
58947;BME280;44724;52.332;4.978;2022-07-21T12:28:19;101864.03;;;19.57;100.00
58947;BME280;44724;52.332;4.978;2022-07-21T12:30:49;101870.00;;;19.64;100.00
58947;BME280;44724;52.332;4.978;2022-07-21T12:33:21;101875.13;;;19.71;100.00
58947;BME280;44724;52.332;4.978;2022-07-21T12:36:04;101872.00;;;19.72;100.00
58947;BME280;44724;52.332;4.978;2022-07-21T12:38:38;101876.28;;;19.70;100.00
58947;BME280;44724;52.332;4.978;2022-07-21T12:41:04;101872.97;;;19.68;100.00
58947;BME280;44724;52.332;4.978;2022-07-21T12:43:30;101875.94;;;19.63;100.00
58947;BME280;44724;52.332;4.978;2022-07-21T12:45:58;101872.47;;;19.57;100.00
58947;BME280;44724;52.332;4.978;2022-07-21T12:48:26;101870.28;;;19.54;100.00
58947;BME280;44724;52.332;4.978;2022-07-21T12:51:14;101872.47;;;19.57;100.00
58947;BME280;44724;52.332;4.978;2022-07-21T12:53:43;101875.63;;;19.64;100.00
58947;BME280;44724;52.332;4.978;2022-07-21T12:56:10;101875.91;;;19.54;100.00
58947;BME280;44724;52.332;4.978;2022-07-21T12:58:37;101874.91;;;19.50;100.00
58947;BME280;44724;52.332;4.978;2022-07-21T13:01:03;101883.19;;;19.55;100.00
58947;BME280;44724;52.332;4.978;2022-07-21T13:03:30;101880.06;;;19.56;100.00
58947;BME280;44724;52.332;4.978;2022-07-21T13:05:55;101879.78;;;19.67;100.00